createdAt,value
2018-07-08T00:01:23.186Z,5.10
2018-07-08T00:03:51.918Z,5.67
2018-07-08T00:06:20.658Z,5.67
2018-07-08T00:08:49.358Z,5.83
2018-07-08T00:11:18.139Z,5.93
2018-07-08T00:13:46.887Z,5.40
2018-07-08T00:16:15.611Z,6.05
2018-07-08T00:18:44.482Z,5.83
2018-07-08T00:21:13.431Z,5.40
2018-07-08T00:23:42.146Z,5.57
2018-07-08T00:26:10.883Z,5.53
2018-07-08T00:28:39.602Z,5.77
2018-07-08T00:31:08.357Z,6.03
2018-07-08T00:33:37.083Z,5.43
2018-07-08T00:36:05.845Z,5.97
2018-07-08T00:38:34.510Z,5.80
2018-07-08T00:41:03.199Z,6.13
2018-07-08T00:43:31.878Z,5.77
2018-07-08T00:46:00.607Z,5.23
2018-07-08T00:48:29.309Z,5.03
2018-07-08T00:50:57.975Z,6.27
2018-07-08T00:53:26.716Z,6.00
2018-07-08T00:55:55.449Z,6.43
2018-07-08T00:58:24.154Z,6.00
2018-07-08T01:00:52.811Z,6.47
2018-07-08T01:03:21.554Z,6.27
2018-07-08T01:05:50.266Z,6.50
2018-07-08T01:08:18.598Z,6.60
2018-07-08T01:10:47.369Z,6.00
2018-07-08T01:13:16.065Z,6.67
2018-07-08T01:15:44.795Z,6.37
2018-07-08T01:18:13.539Z,6.93
2018-07-08T01:20:42.246Z,6.67
2018-07-08T01:23:10.997Z,6.67
2018-07-08T01:25:50.827Z,7.13
2018-07-08T01:28:19.481Z,7.40
2018-07-08T01:30:48.226Z,7.60
2018-07-08T01:33:16.989Z,7.33
2018-07-08T01:35:45.681Z,7.30
2018-07-08T01:38:14.418Z,7.33
2018-07-08T01:40:43.113Z,6.80
2018-07-08T01:43:11.787Z,7.37
2018-07-08T01:45:40.475Z,7.17
2018-07-08T01:48:09.190Z,7.67
2018-07-08T01:50:37.829Z,8.03
2018-07-08T01:53:06.513Z,7.40
2018-07-08T01:55:35.256Z,7.50
2018-07-08T01:58:04.056Z,7.87
2018-07-08T02:00:33.392Z,8.00
2018-07-08T02:03:02.073Z,8.80
2018-07-08T02:05:30.806Z,7.90
2018-07-08T02:07:59.842Z,8.20
2018-07-08T02:10:28.561Z,9.73
2018-07-08T02:12:57.513Z,8.37
2018-07-08T02:15:26.368Z,8.73
2018-07-08T02:17:55.175Z,8.27
2018-07-08T02:20:23.918Z,7.67
2018-07-08T02:22:52.649Z,8.07
2018-07-08T02:25:21.329Z,8.63
2018-07-08T02:27:50.309Z,8.60
2018-07-08T02:30:19.227Z,7.90
2018-07-08T02:32:47.942Z,8.17
2018-07-08T02:35:16.681Z,7.63
2018-07-08T02:37:45.813Z,8.23
2018-07-08T02:40:14.527Z,6.93
2018-07-08T02:42:43.321Z,7.27
2018-07-08T02:45:12.086Z,7.80
2018-07-08T02:47:40.853Z,7.70
2018-07-08T02:50:09.542Z,7.60
2018-07-08T02:52:38.288Z,7.30
2018-07-08T02:55:07.014Z,7.37
2018-07-08T02:57:35.721Z,6.90
2018-07-08T03:00:04.860Z,7.17
2018-07-08T03:02:33.526Z,6.93
2018-07-08T03:05:01.861Z,7.40
2018-07-08T03:07:30.509Z,7.27
2018-07-08T03:09:59.214Z,6.67
2018-07-08T03:12:27.895Z,7.20
2018-07-08T03:14:56.610Z,6.73
2018-07-08T03:17:25.354Z,6.83
2018-07-08T03:19:54.074Z,7.07
2018-07-08T03:22:22.813Z,7.23
2018-07-08T03:24:51.475Z,7.00
2018-07-08T03:27:20.201Z,7.13
2018-07-08T03:29:48.868Z,7.07
2018-07-08T03:32:17.545Z,6.67
2018-07-08T03:34:46.167Z,6.60
2018-07-08T03:37:14.868Z,6.57
2018-07-08T03:39:43.562Z,6.43
2018-07-08T03:42:12.291Z,5.90
2018-07-08T03:44:40.970Z,6.50
2018-07-08T03:47:09.641Z,6.33
2018-07-08T03:49:38.325Z,5.57
2018-07-08T03:52:07.025Z,5.93
2018-07-08T03:54:35.670Z,5.43
2018-07-08T03:57:04.393Z,5.40
2018-07-08T03:59:33.085Z,5.67
2018-07-08T04:02:01.794Z,5.20
2018-07-08T04:04:30.469Z,5.17
2018-07-08T04:06:59.088Z,5.63
2018-07-08T04:09:27.770Z,5.60
2018-07-08T04:11:56.510Z,5.30
2018-07-08T04:14:25.209Z,5.30
2018-07-08T04:16:53.895Z,5.53
2018-07-08T04:19:22.735Z,4.87
2018-07-08T04:21:51.449Z,5.37
2018-07-08T04:24:20.145Z,5.43
2018-07-08T04:26:48.829Z,5.20
2018-07-08T04:29:17.527Z,4.67
2018-07-08T04:31:46.197Z,4.90
2018-07-08T04:34:14.536Z,4.80
2018-07-08T04:36:43.201Z,4.83
2018-07-08T04:39:11.881Z,5.10
2018-07-08T04:41:40.537Z,5.37
2018-07-08T04:44:09.229Z,5.03
2018-07-08T04:46:37.950Z,5.17
2018-07-08T04:49:06.639Z,5.33
2018-07-08T04:51:35.334Z,5.00
2018-07-08T04:54:03.978Z,5.50
2018-07-08T04:56:32.677Z,4.20
2018-07-08T04:59:01.381Z,5.10
2018-07-08T05:01:30.095Z,5.23
2018-07-08T05:03:58.809Z,4.87
2018-07-08T05:06:27.585Z,5.00
2018-07-08T05:08:56.258Z,5.03
2018-07-08T05:11:25.025Z,5.20
2018-07-08T05:13:53.722Z,5.10
2018-07-08T05:16:22.458Z,5.20
2018-07-08T05:18:51.184Z,5.00
2018-07-08T05:21:19.906Z,5.50
2018-07-08T05:23:48.640Z,4.67
2018-07-08T05:26:17.358Z,4.47
2018-07-08T05:28:46.034Z,4.37
2018-07-08T05:31:14.758Z,4.97
2018-07-08T05:33:43.418Z,4.70
2018-07-08T05:36:12.115Z,4.53
2018-07-08T05:38:40.833Z,4.90
2018-07-08T05:41:09.526Z,4.23
2018-07-08T05:43:38.199Z,4.43
2018-07-08T05:46:06.922Z,4.50
2018-07-08T05:48:35.675Z,4.30
2018-07-08T05:51:04.437Z,4.37
2018-07-08T05:53:33.138Z,4.10
2018-07-08T05:56:01.834Z,4.00
2018-07-08T05:58:30.553Z,3.83
2018-07-08T06:00:59.258Z,4.17
2018-07-08T06:03:27.994Z,3.77
2018-07-08T06:05:56.661Z,3.30
2018-07-08T06:08:25.342Z,3.17
2018-07-08T06:10:54.234Z,3.30
2018-07-08T06:13:22.602Z,3.97
2018-07-08T06:15:51.364Z,2.90
2018-07-08T06:18:20.027Z,2.80
2018-07-08T06:20:48.706Z,2.93
2018-07-08T06:23:17.436Z,3.10
2018-07-08T06:25:46.157Z,2.80
2018-07-08T06:28:14.858Z,2.40
2018-07-08T06:30:43.565Z,2.97
2018-07-08T06:33:12.258Z,3.87
2018-07-08T06:35:41.008Z,2.57
2018-07-08T06:38:09.667Z,2.43
2018-07-08T06:40:38.402Z,2.63
2018-07-08T06:43:07.098Z,2.90
2018-07-08T06:45:35.795Z,2.40
2018-07-08T06:48:04.585Z,2.30
2018-07-08T06:50:33.381Z,2.40
2018-07-08T06:53:02.062Z,2.23
2018-07-08T06:55:30.870Z,2.10
2018-07-08T06:57:59.660Z,2.50
2018-07-08T07:00:28.304Z,2.50
2018-07-08T07:02:56.955Z,1.97
2018-07-08T07:05:25.730Z,1.97
2018-07-08T07:07:54.439Z,2.00
2018-07-08T07:10:23.179Z,2.40
2018-07-08T07:12:51.855Z,9.30
2018-07-08T07:15:20.626Z,1.83
2018-07-08T07:17:49.338Z,2.80
2018-07-08T07:20:18.073Z,1.70
2018-07-08T07:22:46.729Z,2.13
2018-07-08T07:25:15.390Z,2.47
2018-07-08T07:27:43.717Z,1.20
2018-07-08T07:30:12.492Z,1.53
2018-07-08T07:32:41.215Z,1.60
2018-07-08T07:35:09.926Z,2.73
2018-07-08T07:37:38.601Z,1.47
2018-07-08T07:40:07.353Z,1.43
2018-07-08T07:42:36.037Z,1.10
2018-07-08T07:45:04.946Z,1.47
2018-07-08T07:47:33.770Z,1.27
2018-07-08T07:50:02.436Z,3.70
2018-07-08T07:52:31.155Z,0.73
2018-07-08T07:54:59.836Z,1.47
2018-07-08T07:57:28.483Z,0.63
2018-07-08T07:59:57.150Z,0.67
2018-07-08T08:02:25.819Z,0.80
2018-07-08T08:04:54.529Z,1.33
2018-07-08T08:07:23.246Z,1.00
2018-07-08T08:09:51.922Z,1.60
2018-07-08T08:12:20.586Z,1.10
2018-07-08T08:14:49.230Z,2.23
2018-07-08T08:17:17.929Z,1.10
2018-07-08T08:19:46.641Z,1.23
2018-07-08T08:22:15.317Z,1.50
2018-07-08T08:24:44.082Z,1.17
2018-07-08T08:27:12.740Z,1.53
2018-07-08T08:29:41.434Z,1.03
2018-07-08T08:32:17.701Z,1.13
2018-07-08T08:34:50.143Z,0.87
2018-07-08T08:37:20.115Z,0.60
2018-07-08T08:39:49.477Z,1.00
2018-07-08T08:42:18.172Z,0.67
2018-07-08T08:44:46.730Z,0.80
2018-07-08T08:47:16.132Z,1.50
2018-07-08T08:49:45.067Z,1.77
2018-07-08T08:52:13.730Z,2.13
2018-07-08T08:54:42.406Z,1.10
2018-07-08T08:57:11.926Z,1.47
2018-07-08T08:59:40.628Z,1.83
2018-07-08T09:02:09.594Z,1.63
2018-07-08T09:04:39.355Z,3.33
2018-07-08T09:07:09.018Z,2.03
2018-07-08T09:09:37.886Z,2.00
2018-07-08T09:12:07.116Z,2.10
2018-07-08T09:14:35.923Z,2.07
2018-07-08T09:17:04.673Z,2.50
2018-07-08T09:19:33.336Z,2.30
2018-07-08T09:22:02.046Z,1.87
2018-07-08T09:24:30.750Z,1.70
2018-07-08T09:26:59.434Z,1.73
2018-07-08T09:29:28.141Z,1.67
2018-07-08T09:31:56.790Z,1.80
2018-07-08T09:34:25.482Z,1.47
2018-07-08T09:36:54.123Z,2.00
2018-07-08T09:39:22.942Z,2.23
2018-07-08T09:41:51.617Z,1.20
2018-07-08T09:44:20.341Z,1.13
2018-07-08T09:46:49.601Z,3.20
2018-07-08T09:49:18.333Z,1.40
2018-07-08T09:51:47.635Z,1.00
2018-07-08T09:54:16.359Z,1.40
2018-07-08T09:56:45.051Z,1.17
2018-07-08T09:59:13.746Z,1.50
2018-07-08T10:01:45.372Z,0.80
2018-07-08T10:04:15.393Z,1.57
2018-07-08T10:06:44.805Z,1.33
2018-07-08T10:09:14.688Z,1.33
2018-07-08T10:11:43.381Z,0.60
2018-07-08T10:14:13.285Z,2.97
2018-07-08T10:16:42.083Z,1.23
2018-07-08T10:19:11.521Z,0.60
2018-07-08T10:21:40.361Z,0.73
2018-07-08T10:24:09.174Z,0.70
2018-07-08T10:26:37.914Z,1.53
2018-07-08T10:29:06.961Z,1.80
2018-07-08T10:31:44.376Z,1.60
2018-07-08T10:34:13.130Z,0.93
2018-07-08T10:36:41.899Z,0.80
2018-07-08T10:39:11.994Z,1.17
2018-07-08T10:41:41.066Z,2.23
2018-07-08T10:44:10.074Z,1.57
2018-07-08T10:46:38.761Z,1.60
2018-07-08T10:49:07.801Z,2.80
2018-07-08T10:51:36.705Z,2.03
2018-07-08T10:54:05.541Z,1.10
2018-07-08T10:56:34.250Z,1.10
2018-07-08T10:59:02.961Z,1.60
2018-07-08T11:01:31.694Z,1.27
2018-07-08T11:04:00.387Z,1.10
2018-07-08T11:06:29.131Z,1.37
2018-07-08T11:08:57.805Z,1.87
2018-07-08T11:11:26.530Z,2.57
2018-07-08T11:13:55.226Z,1.77
2018-07-08T11:16:23.906Z,1.47
2018-07-08T11:18:52.583Z,2.20
2018-07-08T11:21:21.329Z,1.87
2018-07-08T11:23:50.018Z,0.93
2018-07-08T11:26:18.734Z,1.10
2018-07-08T11:28:47.410Z,3.20
2018-07-08T11:31:16.059Z,1.87
2018-07-08T11:33:44.821Z,1.50
2018-07-08T11:36:13.557Z,2.30
2018-07-08T11:38:42.235Z,1.53
2018-07-08T11:41:10.929Z,1.43
2018-07-08T11:43:39.613Z,2.40
2018-07-08T11:46:08.338Z,1.43
2018-07-08T11:48:37.010Z,1.43
2018-07-08T11:51:06.222Z,1.50
2018-07-08T11:53:34.947Z,2.20
2018-07-08T11:56:03.659Z,1.73
2018-07-08T11:58:32.346Z,1.13
2018-07-08T12:01:01.064Z,1.40
2018-07-08T12:03:29.814Z,1.10
2018-07-08T12:05:58.495Z,2.43
2018-07-08T12:08:27.204Z,2.03
2018-07-08T12:10:55.944Z,1.97
2018-07-08T12:13:24.665Z,0.87
2018-07-08T12:15:53.391Z,2.23
2018-07-08T12:18:21.709Z,2.80
2018-07-08T12:20:50.411Z,2.40
2018-07-08T12:23:19.187Z,1.97
2018-07-08T12:25:48.135Z,0.93
2018-07-08T12:28:16.453Z,1.40
2018-07-08T12:30:45.161Z,2.90
2018-07-08T12:33:13.832Z,1.80
2018-07-08T12:35:42.585Z,2.37
2018-07-08T12:38:11.274Z,1.07
2018-07-08T12:40:39.987Z,1.63
2018-07-08T12:43:08.773Z,1.53
2018-07-08T12:45:37.462Z,1.03
2018-07-08T12:48:06.254Z,2.97
2018-07-08T12:50:34.962Z,3.10
2018-07-08T12:53:03.598Z,2.10
2018-07-08T12:55:32.330Z,1.37
2018-07-08T12:58:01.014Z,1.20
2018-07-08T13:00:29.356Z,1.10
2018-07-08T13:02:58.041Z,2.97
2018-07-08T13:05:26.737Z,3.47
2018-07-08T13:07:55.459Z,1.43
2018-07-08T13:10:24.221Z,2.37
2018-07-08T13:12:52.973Z,3.33
2018-07-08T13:15:21.650Z,1.07
2018-07-08T13:17:50.461Z,2.03
2018-07-08T13:20:19.122Z,2.53
2018-07-08T13:22:47.807Z,3.03
2018-07-08T13:25:16.506Z,2.03
2018-07-08T13:27:45.167Z,2.30
2018-07-08T13:30:13.826Z,2.47
2018-07-08T13:32:42.568Z,1.93
2018-07-08T13:35:11.272Z,2.23
2018-07-08T13:37:39.980Z,2.57
2018-07-08T13:40:08.725Z,1.30
2018-07-08T13:42:37.733Z,1.73
2018-07-08T13:45:06.494Z,1.63
2018-07-08T13:47:35.239Z,0.97
2018-07-08T13:50:04.270Z,1.77
2018-07-08T13:52:33.000Z,1.50
2018-07-08T13:55:01.748Z,2.97
2018-07-08T13:57:30.426Z,2.83
2018-07-08T13:59:59.120Z,2.33
2018-07-08T14:02:27.844Z,1.97
2018-07-08T14:04:56.606Z,1.53
2018-07-08T14:07:25.298Z,1.73
2018-07-08T14:09:54.121Z,3.93
2018-07-08T14:12:22.832Z,1.23
2018-07-08T14:14:51.467Z,1.37
2018-07-08T14:17:20.182Z,1.50
2018-07-08T14:19:48.931Z,1.23
2018-07-08T14:22:17.685Z,0.80
2018-07-08T14:24:46.446Z,1.30
2018-07-08T14:27:15.096Z,1.20
2018-07-08T14:29:43.817Z,1.77
2018-07-08T14:32:12.558Z,0.83
2018-07-08T14:34:41.311Z,1.93
2018-07-08T14:37:10.002Z,1.50
2018-07-08T14:39:38.318Z,2.70
2018-07-08T14:42:07.110Z,1.13
2018-07-08T14:44:35.903Z,1.63
2018-07-08T14:47:04.770Z,1.47
2018-07-08T14:49:33.574Z,1.70
2018-07-08T14:52:02.321Z,1.20
2018-07-08T14:54:31.014Z,1.50
2018-07-08T14:56:59.694Z,1.53
2018-07-08T14:59:28.390Z,2.40
2018-07-08T15:01:57.125Z,0.93
2018-07-08T15:04:25.831Z,1.97
2018-07-08T15:06:54.606Z,0.80
2018-07-08T15:09:23.258Z,0.87
2018-07-08T15:11:52.002Z,1.63
2018-07-08T15:14:20.694Z,0.77
2018-07-08T15:16:49.391Z,0.80
2018-07-08T15:19:18.097Z,0.70
2018-07-08T15:21:46.973Z,3.07
2018-07-08T15:24:15.640Z,1.27
2018-07-08T15:26:44.382Z,0.80
2018-07-08T15:29:13.053Z,1.50
2018-07-08T15:31:41.874Z,1.53
2018-07-08T15:34:10.641Z,0.93
2018-07-08T15:36:39.305Z,0.90
2018-07-08T15:39:08.951Z,1.33
2018-07-08T15:41:37.669Z,0.60
2018-07-08T15:44:06.393Z,0.40
2018-07-08T15:46:35.102Z,0.37
2018-07-08T15:49:03.838Z,0.97
2018-07-08T15:51:32.586Z,0.63
2018-07-08T15:54:02.202Z,1.03
2018-07-08T15:56:30.924Z,1.60
2018-07-08T15:58:59.652Z,0.67
2018-07-08T16:01:28.356Z,1.10
2018-07-08T16:03:56.646Z,1.10
2018-07-08T16:06:25.345Z,1.80
2018-07-08T16:08:54.059Z,1.90
2018-07-08T16:11:22.750Z,1.40
2018-07-08T16:13:51.468Z,2.27
2018-07-08T16:16:20.137Z,0.50
2018-07-08T16:18:48.936Z,1.23
2018-07-08T16:21:17.626Z,1.90
2018-07-08T16:23:46.294Z,1.47
2018-07-08T16:26:14.995Z,1.73
2018-07-08T16:28:43.690Z,2.83
2018-07-08T16:31:12.434Z,1.10
2018-07-08T16:33:41.176Z,2.50
2018-07-08T16:36:09.849Z,1.33
2018-07-08T16:38:38.587Z,3.33
2018-07-08T16:41:07.310Z,2.33
2018-07-08T16:43:36.068Z,2.20
2018-07-08T16:46:05.136Z,3.47
2018-07-08T16:48:33.914Z,2.00
2018-07-08T16:51:02.682Z,3.37
2018-07-08T16:53:31.349Z,2.87
2018-07-08T16:56:00.087Z,2.23
2018-07-08T16:58:28.778Z,2.70
2018-07-08T17:00:57.493Z,2.63
2018-07-08T17:03:26.238Z,3.33
2018-07-08T17:05:54.995Z,2.00
2018-07-08T17:08:23.771Z,5.23
2018-07-08T17:10:52.491Z,4.23
2018-07-08T17:13:21.218Z,2.53
2018-07-08T17:15:49.961Z,2.83
2018-07-08T17:18:18.660Z,2.97
2018-07-08T17:20:47.877Z,3.57
2018-07-08T17:23:16.559Z,3.70
2018-07-08T17:25:45.357Z,2.83
2018-07-08T17:28:14.105Z,5.63
2018-07-08T17:30:42.830Z,4.90
2018-07-08T17:33:11.581Z,6.43
2018-07-08T17:35:40.326Z,4.80
2018-07-08T17:38:09.039Z,4.30
2018-07-08T17:40:37.815Z,4.47
2018-07-08T17:43:06.537Z,4.60
2018-07-08T17:45:35.287Z,4.93
2018-07-08T17:48:04.114Z,5.53
2018-07-08T17:50:32.885Z,5.03
2018-07-08T17:53:01.739Z,5.80
2018-07-08T17:55:31.205Z,4.07
2018-07-08T17:57:59.521Z,4.07
2018-07-08T18:00:28.257Z,5.00
2018-07-08T18:02:56.991Z,5.80
2018-07-08T18:05:25.743Z,6.93
2018-07-08T18:07:54.435Z,9.97
2018-07-08T18:10:23.110Z,6.50
2018-07-08T18:12:51.796Z,3.77
2018-07-08T18:15:20.735Z,5.37
2018-07-08T18:17:49.397Z,5.83
2018-07-08T18:20:18.077Z,4.40
2018-07-08T18:22:46.764Z,5.53
2018-07-08T18:25:15.409Z,6.90
2018-07-08T18:27:44.145Z,4.30
2018-07-08T18:30:12.846Z,4.40
2018-07-08T18:32:41.524Z,4.07
2018-07-08T18:35:09.848Z,7.17
2018-07-08T18:37:38.622Z,1.87
2018-07-08T18:40:07.417Z,4.80
2018-07-08T18:42:36.592Z,2.50
2018-07-08T18:45:06.021Z,4.07
2018-07-08T18:47:34.791Z,5.60
2018-07-08T18:50:03.690Z,6.30
2018-07-08T18:52:32.471Z,4.03
2018-07-08T18:55:01.149Z,4.10
2018-07-08T18:57:29.870Z,6.23
2018-07-08T18:59:58.870Z,5.37
2018-07-08T19:02:27.573Z,3.57
2018-07-08T19:04:56.364Z,4.33
2018-07-08T19:07:25.056Z,5.43
2018-07-08T19:09:53.767Z,5.07
2018-07-08T19:12:22.539Z,6.97
2018-07-08T19:14:51.220Z,7.33
2018-07-08T19:17:19.989Z,6.07
2018-07-08T19:19:48.728Z,5.13
2018-07-08T19:22:17.398Z,6.27
2018-07-08T19:24:46.123Z,7.83
2018-07-08T19:27:14.874Z,5.80
2018-07-08T19:29:43.635Z,7.07
2018-07-08T19:32:12.414Z,5.97
2018-07-08T19:34:41.133Z,8.83
2018-07-08T19:37:09.967Z,5.07
2018-07-08T19:39:38.743Z,7.57
2018-07-08T19:42:07.481Z,10.50
2018-07-08T19:44:36.234Z,8.97
2018-07-08T19:47:04.963Z,8.60
2018-07-08T19:49:33.655Z,9.07
2018-07-08T19:52:02.414Z,9.20
2018-07-08T19:54:31.625Z,9.15
2018-07-08T19:57:00.329Z,9.13
2018-07-08T19:59:29.080Z,8.48
2018-07-08T20:01:57.864Z,8.35
2018-07-08T20:04:26.837Z,9.20
2018-07-08T20:06:55.767Z,8.30
2018-07-08T20:09:24.528Z,4.87
2018-07-08T20:11:53.261Z,6.58
2018-07-08T20:14:22.170Z,7.60
2018-07-08T20:16:51.038Z,7.60
2018-07-08T20:19:19.877Z,8.75
2018-07-08T20:21:48.822Z,7.28
2018-07-08T20:24:17.677Z,6.83
2018-07-08T20:26:46.860Z,5.43
2018-07-08T20:29:15.854Z,11.27
2018-07-08T20:31:44.662Z,10.37
2018-07-08T20:34:13.806Z,8.90
2018-07-08T20:36:42.571Z,7.63
2018-07-08T20:39:11.378Z,8.73
2018-07-08T20:41:40.157Z,7.25
2018-07-08T20:44:08.842Z,7.23
2018-07-08T20:46:37.510Z,7.25
2018-07-08T20:49:06.270Z,7.20
2018-07-08T20:51:35.114Z,7.17
2018-07-08T20:54:03.829Z,7.45
2018-07-08T20:56:32.520Z,7.42
2018-07-08T20:59:01.218Z,4.53
2018-07-08T21:01:29.964Z,5.57
2018-07-08T21:03:58.768Z,4.83
2018-07-08T21:06:27.518Z,7.57
2018-07-08T21:08:56.239Z,7.70
2018-07-08T21:11:25.877Z,7.17
2018-07-08T21:13:54.721Z,11.63
2018-07-08T21:16:23.045Z,7.90
2018-07-08T21:18:51.916Z,5.87
2018-07-08T21:21:20.678Z,7.27
2018-07-08T21:23:49.670Z,7.60
2018-07-08T21:26:18.349Z,7.03
2018-07-08T21:28:47.098Z,6.97
2018-07-08T21:31:16.206Z,6.27
2018-07-08T21:33:45.062Z,13.03
2018-07-08T21:36:13.905Z,5.57
2018-07-08T21:38:43.362Z,8.33
2018-07-08T21:41:12.109Z,7.37
2018-07-08T21:43:40.894Z,6.07
2018-07-08T21:46:09.710Z,8.53
2018-07-08T21:48:38.504Z,12.03
2018-07-08T21:51:07.196Z,7.37
2018-07-08T21:53:35.986Z,7.80
2018-07-08T21:56:04.732Z,6.00
2018-07-08T21:58:33.426Z,6.63
2018-07-08T22:01:19.837Z,10.63
2018-07-08T22:03:49.070Z,9.07
2018-07-08T22:06:18.526Z,7.67
2018-07-08T22:08:47.333Z,9.70
2018-07-08T22:11:16.345Z,10.20
2018-07-08T22:13:45.202Z,12.07
2018-07-08T22:16:14.009Z,8.67
2018-07-08T22:18:42.783Z,10.27
2018-07-08T22:21:11.527Z,6.97
2018-07-08T22:23:40.231Z,10.50
2018-07-08T22:26:09.018Z,13.63
2018-07-08T22:28:37.719Z,7.50
2018-07-08T22:31:06.433Z,9.03
2018-07-08T22:33:35.162Z,7.23
2018-07-08T22:36:03.826Z,8.13
2018-07-08T22:38:32.520Z,6.10
2018-07-08T22:41:01.186Z,9.73
2018-07-08T22:43:29.906Z,9.50
2018-07-08T22:45:58.593Z,8.67
2018-07-08T22:48:27.309Z,6.27
2018-07-08T22:50:56.012Z,8.47
2018-07-08T22:53:24.749Z,8.37
2018-07-08T22:55:53.412Z,5.23
2018-07-08T22:58:22.143Z,8.97
2018-07-08T23:01:02.006Z,8.87
2018-07-08T23:03:48.573Z,5.97
2018-07-08T23:06:18.577Z,6.87
2018-07-08T23:08:47.573Z,6.00
2018-07-08T23:11:16.261Z,5.27
2018-07-08T23:13:45.318Z,7.73
2018-07-08T23:16:14.006Z,7.73
2018-07-08T23:18:42.789Z,8.57
2018-07-08T23:21:11.513Z,7.83
2018-07-08T23:23:40.209Z,5.57
2018-07-08T23:26:08.963Z,5.63
2018-07-08T23:28:38.074Z,6.70
2018-07-08T23:31:07.439Z,7.77
2018-07-08T23:33:36.133Z,8.93
2018-07-08T23:36:05.457Z,6.43
2018-07-08T23:38:34.469Z,5.03
2018-07-08T23:41:04.109Z,4.17
2018-07-08T23:43:32.923Z,8.50
2018-07-08T23:46:02.315Z,5.17
2018-07-08T23:48:31.414Z,7.27
2018-07-08T23:51:00.141Z,6.83
2018-07-08T23:53:29.053Z,5.83
2018-07-08T23:55:57.811Z,7.00
2018-07-08T23:58:26.530Z,6.50
